Buena Vista, CO (81211)

2:06 AM MST on February 07, 2016 (GMT -0700)
NW of Buena Vista | | Change Station
CLOSE
Current Station
Personal Weather Station
Location: Buena Vista, CO
Elevation: 8200 ft
Nearby Weather Stations

Elev 8200 ft 38.86 °N, 106.17 °W | Updated 1 minute ago

Clear
Clear
33.6 °F
Feels Like 24 °F
N
15.0
Wind Variable Wind from NNW
Gusts 35.0 mph

Today
High -- | Low -- °F
--% Chance of Precip.
Yesterday
High -- | Low -- °F
Precip. -- in
Pressure 30.25 in
Visibility 10.0 miles
Clouds Clear
Windchill 24 °F
Dew Point 12 °F
Humidity 40%
Rainfall 0.00 in
Snow Depth Not available.
7:05 AM 5:32 PM
Waning Crescent, 2% visible
METAR KAEJ 070855Z AUTO 24003KT 10SM CLR M03/M13 A3025 RMK AO2 T10311128
Pressure 30.25 in
Visibility 10.0 miles
Clouds Clear
Windchill 24 °F
Dew Point 12 °F
Humidity 40%
Rainfall 0.00 in
Snow Depth Not available.
7:05 AM 5:32 PM
Waning Crescent, 2% visible
METAR KAEJ 070855Z AUTO 24003KT 10SM CLR M03/M13 A3025 RMK AO2 T10311128

10-Day Weather Forecast

Almanac

Astronomy

Feb. 07, 2016 Rise Set
Actual Time
Civil Twilight
Nautical Twilight
Astronomical Twilight
Moon
Length of Visible Light
Length of Day
Tomorrow will be .
, % of the Moon is Illuminated

Today's Extremes

State Highs State Lows

Community

WunderPhotos

Upload Photos

1,891,171 photos uploaded!

WunderBlog® & News

Nearby

Air Quality

  Air Quality AQ Index Pollutant
Not available.

Snow Depth

Station Depth Elevation

Earthquake Activity

City Distance Mag. Time & Date
Minimum magnitude displayed is 2.5.

Coastal Water Temperatures

Place Temperature

Stations

Nearby Weather Stations

Station Location Temp. Windchill Dew Point Humidity Wind Precip. Elev Updated Type
                   

Watches & Warnings

There are currently no watches in effect.